Time;durP1;ratioP1;P1;durP2;ratioP2;P2;SDS_P1;SDS_P2;PMS_P1;PMS_P2;Temp;Humidity;BMP_temperature;BMP_pressure;BME280_temperature;BME280_humidity;BME280_pressure;Samples;Min_cycle;Max_cycle;Signal;HPM_P1;HPM_P2
2021/06/09 00:01:27;;;;;;;14.77;13.18;;;;;;;17.95;62.09;100516.63;5013827;28;20041;-58
2021/06/09 00:03:56;;;;;;;15.15;13.65;;;;;;;17.94;62.17;100520.13;5013638;28;20034;-58
2021/06/09 00:06:29;;;;;;;16.58;14.40;;;;;;;17.92;62.10;100516.66;5013755;28;20120;-58
2021/06/09 00:09:01;;;;;;;18.60;14.68;;;;;;;17.89;62.30;100514.94;4997084;28;20432;-58
2021/06/09 00:11:51;;;;;;;17.00;14.32;;;;;;;17.88;62.23;100515.81;5013630;28;20137;-58
2021/06/09 00:14:40;;;;;;;17.90;13.65;;;;;;;17.85;62.47;100521.06;5013694;28;20048;-59
2021/06/09 00:17:27;;;;;;;17.20;14.30;;;;;;;17.84;62.42;100519.31;5013719;28;20049;-59
2021/06/09 00:19:58;;;;;;;14.40;12.95;;;;;;;17.83;62.56;100527.22;4997244;28;20038;-59
2021/06/09 00:22:29;;;;;;;15.25;13.05;;;;;;;17.83;62.31;100524.59;4997308;28;20042;-59
2021/06/09 00:25:00;;;;;;;15.38;12.90;;;;;;;17.80;62.31;100523.72;4996791;28;20545;-59
2021/06/09 00:27:31;;;;;;;15.30;13.63;;;;;;;17.81;62.44;100519.38;5012727;28;20123;-59
2021/06/09 00:30:00;;;;;;;16.23;13.15;;;;;;;17.78;62.60;100515.00;4996544;28;20038;-59
2021/06/09 00:32:33;;;;;;;15.43;13.77;;;;;;;17.78;62.29;100508.91;4997088;28;20041;-59
2021/06/09 00:34:59;;;;;;;15.45;13.68;;;;;;;17.78;62.52;100514.13;4997390;28;20045;-58
2021/06/09 00:37:30;;;;;;;14.40;12.57;;;;;;;17.77;62.49;100507.16;4996683;28;20138;-58
2021/06/09 00:40:02;;;;;;;15.85;12.75;;;;;;;17.76;62.35;100505.41;5012810;28;20034;-58
2021/06/09 00:42:28;;;;;;;15.25;13.45;;;;;;;17.76;62.83;100515.91;4996392;28;20145;-58
2021/06/09 00:45:00;;;;;;;15.52;13.38;;;;;;;17.74;62.55;100499.31;4996518;28;20532;-58
2021/06/09 00:47:28;;;;;;;16.45;12.52;;;;;;;17.75;62.85;100501.91;4996330;28;20041;-58
2021/06/09 00:49:57;;;;;;;17.17;13.68;;;;;;;17.75;62.67;100511.53;4996796;28;20185;-59
2021/06/09 00:52:31;;;;;;;17.98;13.70;;;;;;;17.72;62.91;100509.81;4996567;28;20037;-58
2021/06/09 00:54:59;;;;;;;20.95;13.25;;;;;;;17.73;62.79;100510.66;4996281;28;20485;-59
2021/06/09 00:57:29;;;;;;;18.77;13.20;;;;;;;17.72;62.73;100519.41;5012645;28;20121;-58
2021/06/09 00:59:59;;;;;;;13.98;12.10;;;;;;;17.70;62.74;100510.69;5012639;28;20121;-59
2021/06/09 01:02:29;;;;;;;14.43;12.57;;;;;;;17.69;63.10;100506.31;4995940;28;20046;-58
2021/06/09 01:04:58;;;;;;;15.23;13.32;;;;;;;17.69;62.81;100508.94;4996197;28;20034;-57
2021/06/09 01:07:29;;;;;;;16.90;14.27;;;;;;;17.68;62.70;100508.06;4996139;28;20049;-58
2021/06/09 01:10:00;;;;;;;17.05;13.68;;;;;;;17.65;62.93;100501.13;5012783;28;20041;-58
2021/06/09 01:12:33;;;;;;;17.88;14.07;;;;;;;17.65;62.94;100497.59;4996074;28;20080;-59
2021/06/09 01:15:05;;;;;;;17.73;13.75;;;;;;;17.64;63.04;100501.09;5012823;28;20034;-58
2021/06/09 01:17:39;;;;;;;16.20;14.15;;;;;;;17.62;63.14;100498.50;4996452;28;20045;-58
2021/06/09 01:20:10;;;;;;;19.42;13.32;;;;;;;17.60;62.97;100500.25;5012419;28;20033;-58
2021/06/09 01:22:38;;;;;;;19.05;14.23;;;;;;;17.60;63.15;100497.63;4996765;28;20037;-58
2021/06/09 01:25:08;;;;;;;15.23;13.50;;;;;;;17.59;63.28;100489.81;4996028;28;20041;-58
2021/06/09 01:27:38;;;;;;;16.42;13.75;;;;;;;17.58;63.17;100488.91;4995905;28;20135;-59
2021/06/09 01:30:11;;;;;;;15.68;13.73;;;;;;;17.58;62.99;100490.69;4996189;28;20029;-60
2021/06/09 01:32:42;;;;;;;17.70;13.95;;;;;;;17.57;63.15;100499.41;4996041;28;20461;-58
2021/06/09 01:35:13;;;;;;;15.00;13.50;;;;;;;17.57;63.21;100494.19;4996772;28;20049;-59
2021/06/09 01:37:44;;;;;;;19.25;14.57;;;;;;;17.55;63.21;100496.78;5014564;28;20125;-58
2021/06/09 01:40:14;;;;;;;16.20;14.40;;;;;;;17.53;63.19;100492.44;4999648;28;20099;-58
2021/06/09 01:42:43;;;;;;;21.08;15.43;;;;;;;17.51;63.39;100500.31;4999682;28;20041;-58
2021/06/09 01:45:13;;;;;;;18.23;15.18;;;;;;;17.50;63.27;100502.06;4999650;28;20034;-58
2021/06/09 01:47:42;;;;;;;18.48;14.20;;;;;;;17.50;63.20;100501.19;5015948;28;20390;-59
2021/06/09 01:50:12;;;;;;;16.35;14.60;;;;;;;17.49;63.40;100502.06;4999690;28;20030;-59
2021/06/09 01:52:42;;;;;;;17.83;14.10;;;;;;;17.47;63.31;100486.34;4999897;28;20049;-59
2021/06/09 01:55:14;;;;;;;20.20;15.30;;;;;;;17.45;63.37;100501.19;4999895;28;20051;-59
2021/06/09 01:57:47;;;;;;;20.80;15.18;;;;;;;17.44;63.51;100493.34;4999585;28;20038;-59
2021/06/09 02:00:24;;;;;;;22.27;15.55;;;;;;;17.43;63.35;100492.50;5000096;28;20041;-59
2021/06/09 02:02:57;;;;;;;18.08;14.93;;;;;;;17.43;63.51;100495.13;5015834;28;20045;-59
2021/06/09 02:05:24;;;;;;;19.33;15.53;;;;;;;17.42;63.50;100490.75;4999701;28;20037;-59
2021/06/09 02:07:54;;;;;;;18.23;15.88;;;;;;;17.41;63.37;100498.59;4999389;28;20051;-59
2021/06/09 02:10:23;;;;;;;17.42;15.52;;;;;;;17.39;63.50;100500.38;4999154;28;20121;-59
2021/06/09 02:12:55;;;;;;;20.15;16.80;;;;;;;17.36;63.52;100498.63;4999311;28;20049;-59
2021/06/09 02:15:25;;;;;;;20.10;16.83;;;;;;;17.34;63.35;100498.66;5015594;28;20393;-59
2021/06/09 02:18:17;;;;;;;18.27;16.35;;;;;;;17.33;63.40;100501.25;4999368;28;20038;-59
2021/06/09 02:20:44;;;;;;;20.77;16.33;;;;;;;17.32;63.49;100504.75;5015070;28;20101;-60
2021/06/09 02:23:20;;;;;;;20.65;15.63;;;;;;;17.30;63.69;100496.91;5015543;28;20038;-58
2021/06/09 02:25:50;;;;;;;18.98;16.45;;;;;;;17.29;63.63;100500.41;5014901;28;20042;-58
2021/06/09 02:28:18;;;;;;;19.58;16.02;;;;;;;17.29;63.77;100504.78;4999240;28;20041;-58
2021/06/09 02:30:48;;;;;;;19.58;16.20;;;;;;;17.27;63.54;100499.56;4999046;28;20030;-58
2021/06/09 02:33:20;;;;;;;22.02;17.13;;;;;;;17.26;63.62;100503.03;4999050;28;20061;-58
2021/06/09 02:35:51;;;;;;;21.40;16.58;;;;;;;17.24;63.82;100498.69;4999210;28;20503;-58
2021/06/09 02:38:22;;;;;;;19.33;15.95;;;;;;;17.25;63.77;100500.44;4999361;28;20104;-58
2021/06/09 02:40:54;;;;;;;21.05;15.77;;;;;;;17.24;63.65;100507.41;4998984;28;20127;-58
2021/06/09 02:43:30;;;;;;;19.33;14.80;;;;;;;17.24;63.81;100502.19;4998968;28;20378;-58
2021/06/09 02:46:08;;;;;;;23.98;16.77;;;;;;;17.22;63.66;100503.94;4998794;28;20129;-59
2021/06/09 02:48:41;;;;;;;20.15;16.70;;;;;;;17.23;63.64;100504.81;5014886;28;20033;-59
2021/06/09 02:51:07;;;;;;;20.45;16.27;;;;;;;17.20;63.81;100506.56;4998921;28;20037;-59
2021/06/09 02:53:57;;;;;;;18.83;14.77;;;;;;;17.18;63.56;100489.97;4998741;28;20042;-58
2021/06/09 02:56:35;;;;;;;18.48;16.45;;;;;;;17.18;63.71;100496.97;4998214;28;20049;-59
2021/06/09 02:59:28;;;;;;;22.52;16.77;;;;;;;17.18;63.76;100496.97;4999419;28;20064;-59
2021/06/09 03:02:21;;;;;;;23.27;17.00;;;;;;;17.17;63.70;100496.09;4997997;28;20064;-59
2021/06/09 03:04:54;;;;;;;18.80;16.00;;;;;;;17.17;63.76;100497.84;4998197;28;20040;-59
2021/06/09 03:07:53;;;;;;;21.65;16.58;;;;;;;17.13;63.70;100494.34;4999264;28;20048;-59
2021/06/09 03:10:27;;;;;;;18.38;16.23;;;;;;;17.14;64.04;100492.63;4997857;28;20048;-58
2021/06/09 03:13:03;;;;;;;20.63;16.45;;;;;;;17.12;63.79;100494.38;4998161;28;20041;-58
2021/06/09 03:15:40;;;;;;;20.20;16.13;;;;;;;17.10;63.70;100494.41;5014622;28;20489;-58
2021/06/09 03:18:14;;;;;;;20.05;16.98;;;;;;;17.10;63.78;100493.50;4999020;28;20085;-59
2021/06/09 03:20:50;;;;;;;19.60;16.45;;;;;;;17.08;63.78;100487.41;5014838;28;20037;-59
2021/06/09 03:23:53;;;;;;;18.80;16.67;;;;;;;17.06;63.82;100492.66;4998106;28;20049;-58
2021/06/09 03:26:41;;;;;;;22.65;16.60;;;;;;;17.05;63.93;100488.28;4998420;28;20038;-58
2021/06/09 03:29:31;;;;;;;21.73;17.45;;;;;;;17.03;63.87;100484.81;4998327;28;20059;-58
2021/06/09 03:32:08;;;;;;;21.33;16.52;;;;;;;17.02;64.04;100486.56;4997943;28;20437;-59
2021/06/09 03:34:48;;;;;;;23.92;16.98;;;;;;;17.02;64.12;100494.44;4998233;28;20048;-59
2021/06/09 03:37:24;;;;;;;25.58;16.02;;;;;;;17.00;63.95;100490.03;4997714;28;20034;-59
2021/06/09 03:39:58;;;;;;;20.00;15.10;;;;;;;16.99;64.09;100491.81;4997751;28;20505;-59
2021/06/09 03:42:31;;;;;;;23.73;17.23;;;;;;;16.97;64.09;100487.47;5014045;28;20389;-59
2021/06/09 03:45:01;;;;;;;22.30;16.88;;;;;;;16.95;64.04;100490.06;4998192;28;20129;-58
2021/06/09 03:47:35;;;;;;;20.73;16.48;;;;;;;16.94;64.12;100498.75;4998131;28;20556;-58
2021/06/09 03:50:08;;;;;;;25.13;16.63;;;;;;;16.93;64.20;100498.78;5013640;28;20044;-60
2021/06/09 03:52:36;;;;;;;27.58;16.80;;;;;;;16.91;64.20;100496.16;4997476;28;20037;-58
2021/06/09 03:55:09;;;;;;;22.55;16.67;;;;;;;16.90;64.01;100494.41;4997115;28;20509;-58
2021/06/09 03:57:38;;;;;;;22.02;16.90;;;;;;;16.87;64.14;100497.91;5013926;28;20519;-60
2021/06/09 04:00:10;;;;;;;23.38;15.15;;;;;;;16.89;64.06;100500.53;4996438;28;20034;-59
2021/06/09 04:02:44;;;;;;;25.25;15.77;;;;;;;16.88;64.15;100493.56;4997187;28;20050;-59
2021/06/09 04:05:16;;;;;;;21.83;15.35;;;;;;;16.86;64.17;100493.56;4997113;28;20386;-58
2021/06/09 04:07:51;;;;;;;23.55;15.45;;;;;;;16.86;64.18;100503.16;4997953;28;20492;-58
2021/06/09 04:10:25;;;;;;;22.38;16.10;;;;;;;16.84;64.24;100500.53;4997698;28;20180;-58
2021/06/09 04:12:58;;;;;;;20.23;15.65;;;;;;;16.84;64.35;100497.06;4997446;28;20125;-57
2021/06/09 04:15:33;;;;;;;23.58;16.45;;;;;;;16.84;64.38;100499.66;4997565;28;20038;-59
2021/06/09 04:18:05;;;;;;;23.48;17.58;;;;;;;16.84;64.45;100494.44;4997006;28;20042;-59
2021/06/09 04:20:44;;;;;;;27.67;18.83;;;;;;;16.84;64.32;100500.53;4997988;28;20061;-59
2021/06/09 04:23:17;;;;;;;21.88;16.75;;;;;;;16.84;64.42;100492.69;4996755;28;20044;-59
2021/06/09 04:25:51;;;;;;;26.33;19.27;;;;;;;16.84;64.35;100490.06;4996917;28;20037;-59
2021/06/09 04:28:19;;;;;;;25.27;19.75;;;;;;;16.84;64.50;100489.19;4996744;28;20034;-59
2021/06/09 04:30:51;;;;;;;31.45;23.15;;;;;;;16.84;64.59;100491.81;4996837;28;20030;-59
2021/06/09 04:33:17;;;;;;;35.20;21.05;;;;;;;16.84;64.54;100483.97;4997154;28;20042;-59
2021/06/09 04:35:46;;;;;;;30.20;21.52;;;;;;;16.85;64.73;100498.81;4996832;28;20029;-58
2021/06/09 04:38:18;;;;;;;31.77;21.00;;;;;;;16.84;64.62;100495.28;5013332;28;20504;-57
2021/06/09 04:40:52;;;;;;;31.30;22.30;;;;;;;16.83;64.62;100490.94;4996366;28;20044;-59
2021/06/09 04:43:22;;;;;;;33.28;20.80;;;;;;;16.86;64.63;100492.69;4996054;28;20523;-58
2021/06/09 04:45:53;;;;;;;31.92;20.13;;;;;;;16.86;64.46;100496.16;5012929;28;20575;-58
2021/06/09 04:48:27;;;;;;;32.13;21.45;;;;;;;16.87;64.85;100491.81;4997249;28;20048;-58
2021/06/09 04:51:00;;;;;;;30.73;20.15;;;;;;;16.88;64.95;100499.66;5013056;28;20116;-58
2021/06/09 04:53:32;;;;;;;30.67;21.08;;;;;;;16.87;64.87;100495.28;4996415;28;20401;-58
2021/06/09 04:56:01;;;;;;;34.70;22.70;;;;;;;16.88;64.88;100490.94;4996781;28;20480;-58
2021/06/09 04:58:32;;;;;;;29.63;20.35;;;;;;;16.88;64.91;100493.56;4996832;28;20220;-58
2021/06/09 05:00:58;;;;;;;39.60;20.40;;;;;;;16.90;64.90;100494.41;4996307;28;20057;-58
2021/06/09 05:03:27;;;;;;;31.92;19.88;;;;;;;16.89;64.88;100500.53;4995787;28;20050;-58
2021/06/09 05:05:52;;;;;;;41.08;20.42;;;;;;;16.90;65.05;100491.78;4996254;28;20101;-58
2021/06/09 05:08:20;;;;;;;33.15;20.80;;;;;;;16.90;65.01;100499.63;5012423;28;20038;-58
2021/06/09 05:10:50;;;;;;;29.42;20.35;;;;;;;16.89;65.03;100501.41;4995635;28;20076;-58
2021/06/09 05:13:39;;;;;;;28.50;20.70;;;;;;;16.92;64.83;100499.66;4995948;28;20108;-58
2021/06/09 05:16:15;;;;;;;30.08;22.40;;;;;;;16.92;64.98;100500.50;4996121;28;20048;-58
2021/06/09 05:18:52;;;;;;;29.83;22.23;;;;;;;16.93;64.99;100507.50;5012566;28;20133;-58
2021/06/09 05:21:28;;;;;;;31.08;22.88;;;;;;;16.95;65.17;100495.31;4996755;28;20107;-58
2021/06/09 05:24:01;;;;;;;34.40;22.40;;;;;;;16.96;64.88;100509.28;4996488;28;20461;-58
2021/06/09 05:26:31;;;;;;;33.70;24.98;;;;;;;16.97;65.27;100498.78;4996198;28;20478;-58
2021/06/09 05:29:01;;;;;;;38.50;25.77;;;;;;;16.99;65.21;100499.66;4995874;28;20042;-58
2021/06/09 05:31:36;;;;;;;35.90;26.98;;;;;;;16.98;65.28;100490.06;4995947;28;20046;-58
2021/06/09 05:34:06;;;;;;;34.53;25.15;;;;;;;17.00;65.35;100497.91;4996249;28;20038;-58
2021/06/09 05:36:37;;;;;;;36.03;22.88;;;;;;;17.01;65.11;100497.91;4995838;28;20037;-58
2021/06/09 05:39:03;;;;;;;29.58;23.40;;;;;;;17.02;65.47;100491.81;4996189;28;20026;-58
2021/06/09 05:41:34;;;;;;;31.15;23.52;;;;;;;17.03;65.35;100503.13;4995782;28;20045;-58
2021/06/09 05:44:02;;;;;;;26.20;21.85;;;;;;;17.03;65.41;100506.63;4996819;28;20038;-58
2021/06/09 05:46:35;;;;;;;24.05;19.55;;;;;;;17.04;65.46;100507.50;4995476;28;20417;-57
2021/06/09 05:49:03;;;;;;;25.20;19.98;;;;;;;17.03;65.42;100505.75;4995879;28;20132;-59
2021/06/09 05:51:32;;;;;;;26.80;20.50;;;;;;;17.04;65.46;100511.00;4996071;28;20046;-59
2021/06/09 05:54:00;;;;;;;27.63;20.63;;;;;;;17.04;65.59;100508.38;4996233;28;20029;-60
2021/06/09 05:56:29;;;;;;;27.45;19.88;;;;;;;17.07;65.57;100511.84;4996400;28;20092;-59
2021/06/09 05:59:04;;;;;;;25.77;21.17;;;;;;;17.08;65.49;100500.50;5012660;28;20038;-59
2021/06/09 06:01:30;;;;;;;28.48;20.50;;;;;;;17.09;65.51;100507.47;5011960;28;20037;-59
2021/06/09 06:03:56;;;;;;;26.50;20.35;;;;;;;17.10;65.82;100507.50;4995303;28;20046;-59
2021/06/09 06:06:22;;;;;;;30.60;20.27;;;;;;;17.09;65.83;100499.63;4995705;28;20441;-59
2021/06/09 06:08:48;;;;;;;29.05;18.90;;;;;;;17.11;65.63;100505.72;4995710;28;20041;-59
2021/06/09 06:11:22;;;;;;;24.33;17.20;;;;;;;17.12;65.46;100510.09;4996199;28;20053;-59
2021/06/09 06:13:49;;;;;;;24.08;18.13;;;;;;;17.11;65.59;100510.97;4996268;28;20045;-59
2021/06/09 06:16:19;;;;;;;28.58;19.40;;;;;;;17.11;65.56;100508.34;4995501;28;20041;-59
2021/06/09 06:18:52;;;;;;;20.83;17.38;;;;;;;17.12;65.49;100508.34;4995622;28;20199;-59
2021/06/09 06:21:21;;;;;;;23.75;18.92;;;;;;;17.13;65.55;100510.06;4995556;28;20080;-59
2021/06/09 06:23:54;;;;;;;21.67;18.67;;;;;;;17.15;65.56;100510.94;4998394;28;20508;-59
2021/06/09 06:26:25;;;;;;;22.50;18.15;;;;;;;17.16;65.68;100507.44;5015540;28;20129;-59
2021/06/09 06:29:00;;;;;;;23.77;18.70;;;;;;;17.17;65.57;100513.56;5015343;28;20041;-59
2021/06/09 06:31:31;;;;;;;23.55;18.55;;;;;;;17.19;65.59;100520.53;5015331;28;20041;-59
2021/06/09 06:33:59;;;;;;;20.17;16.67;;;;;;;17.21;65.78;100523.13;5015772;28;20029;-60
2021/06/09 06:36:29;;;;;;;23.42;17.88;;;;;;;17.22;65.74;100519.63;4999363;28;20576;-59
2021/06/09 06:38:58;;;;;;;20.75;18.35;;;;;;;17.23;65.62;100520.53;5015243;28;20034;-59
2021/06/09 06:41:32;;;;;;;20.67;17.13;;;;;;;17.24;65.73;100519.66;5015272;28;20038;-59
2021/06/09 06:43:59;;;;;;;20.77;17.70;;;;;;;17.26;65.92;100520.53;5015334;28;20038;-59
2021/06/09 06:46:30;;;;;;;21.35;16.20;;;;;;;17.27;65.70;100522.28;4998530;28;20520;-59
2021/06/09 06:48:59;;;;;;;21.77;17.02;;;;;;;17.26;65.83;100518.75;4999163;28;20125;-59
2021/06/09 06:51:33;;;;;;;22.33;16.33;;;;;;;17.29;65.79;100521.38;5015382;28;20386;-59
2021/06/09 06:54:05;;;;;;;19.88;15.77;;;;;;;17.30;65.78;100524.84;5015970;28;20073;-59
2021/06/09 06:56:37;;;;;;;21.27;16.17;;;;;;;17.31;65.71;100524.88;4998670;28;20481;-59
2021/06/09 06:59:04;;;;;;;21.52;16.58;;;;;;;17.32;65.37;100526.59;4999340;28;20038;-59
2021/06/09 07:01:33;;;;;;;19.17;16.17;;;;;;;17.32;65.80;100525.72;5015056;28;20370;-59
2021/06/09 07:04:00;;;;;;;20.27;16.75;;;;;;;17.35;65.87;100528.34;4998157;28;20050;-59
2021/06/09 07:06:26;;;;;;;24.02;16.92;;;;;;;17.37;66.33;100523.06;4998262;28;20478;-59
2021/06/09 07:08:55;;;;;;;23.75;17.70;;;;;;;17.37;65.73;100526.56;5014123;28;20413;-59
2021/06/09 07:11:21;;;;;;;25.05;17.60;;;;;;;17.39;65.79;100530.06;5015844;28;20037;-59
2021/06/09 07:13:48;;;;;;;26.05;17.15;;;;;;;17.41;65.90;100524.81;5014859;28;20072;-59
2021/06/09 07:16:15;;;;;;;23.98;16.88;;;;;;;17.43;65.90;100528.28;4998447;28;20428;-59
2021/06/09 07:18:45;;;;;;;22.23;17.17;;;;;;;17.43;65.84;100530.91;4998066;28;20065;-59
2021/06/09 07:21:13;;;;;;;21.13;16.80;;;;;;;17.44;65.93;100530.03;4997997;28;20431;-59
2021/06/09 07:23:39;;;;;;;26.73;17.35;;;;;;;17.45;66.04;100534.41;4998379;28;20050;-59
2021/06/09 07:26:09;;;;;;;25.35;16.63;;;;;;;17.44;65.85;100525.66;5014288;28;20391;-59
2021/06/09 07:28:41;;;;;;;24.45;18.05;;;;;;;17.46;65.99;100531.75;5014935;28;20046;-59
2021/06/09 07:31:16;;;;;;;24.73;17.10;;;;;;;17.47;65.81;100527.41;5014314;28;20034;-59
2021/06/09 07:33:50;;;;;;;23.85;19.23;;;;;;;17.49;66.06;100525.66;5014926;28;20421;-59
2021/06/09 07:36:36;;;;;;;28.15;18.55;;;;;;;17.49;65.86;100526.50;5013574;28;20034;-59
2021/06/09 07:39:07;;;;;;;29.48;19.98;;;;;;;17.51;65.88;100529.16;5013923;28;20103;-59
2021/06/09 07:41:39;;;;;;;27.63;18.75;;;;;;;17.53;65.98;100522.13;5015417;28;20141;-59
2021/06/09 07:44:13;;;;;;;28.10;20.35;;;;;;;17.53;65.94;100524.75;5014046;28;20113;-59
2021/06/09 07:46:47;;;;;;;26.48;19.80;;;;;;;17.56;65.92;100526.50;5015384;28;20038;-59
2021/06/09 07:49:21;;;;;;;25.80;20.17;;;;;;;17.58;65.98;100530.84;5015459;28;20041;-59
2021/06/09 07:51:54;;;;;;;;;;;;;;;17.57;65.85;100533.47;4998338;28;20034;-59
2021/06/09 07:54:24;;;;;;;28.52;21.33;;;;;;;17.59;66.09;100540.44;5013478;28;19913;-59
2021/06/09 07:56:51;;;;;;;28.48;20.52;;;;;;;17.59;66.01;100532.59;5013605;28;20134;-59
2021/06/09 07:59:18;;;;;;;26.75;20.02;;;;;;;17.61;65.91;100533.44;5014023;28;20084;-59
2021/06/09 08:01:45;;;;;;;28.92;23.98;;;;;;;17.64;65.87;100537.78;5013482;28;20034;-59
2021/06/09 08:04:15;;;;;;;28.88;22.73;;;;;;;17.64;66.18;100533.44;5014954;28;20061;-59
2021/06/09 08:06:46;;;;;;;33.70;25.10;;;;;;;17.68;66.12;100538.63;5013392;28;20045;-59
2021/06/09 08:09:17;;;;;;;32.95;24.85;;;;;;;17.69;65.85;100536.03;5014999;28;20121;-59
2021/06/09 08:11:47;;;;;;;27.30;24.40;;;;;;;17.71;66.06;100541.25;5013699;28;20042;-59
2021/06/09 08:14:22;;;;;;;34.40;27.48;;;;;;;17.72;66.05;100536.03;5014794;28;20504;-59
2021/06/09 08:16:47;;;;;;;36.25;28.65;;;;;;;17.74;66.09;100542.13;4997758;28;20092;-58
2021/06/09 08:19:13;;;;;;;40.50;29.02;;;;;;;17.75;65.99;100541.22;4997012;28;20397;-58
2021/06/09 08:21:39;;;;;;;34.17;28.88;;;;;;;17.76;65.83;100532.47;5013258;28;20065;-58
2021/06/09 08:24:10;;;;;;;34.83;29.17;;;;;;;17.76;65.86;100535.09;4996811;28;20045;-58
2021/06/09 08:26:35;;;;;;;38.03;30.00;;;;;;;17.79;66.08;100531.59;5013427;28;20048;-58
2021/06/09 08:29:07;;;;;;;33.35;28.15;;;;;;;17.80;65.95;100530.72;5013372;28;20042;-58
2021/06/09 08:31:34;;;;;;;35.60;30.13;;;;;;;17.83;66.08;100538.56;5013313;28;20034;-58
2021/06/09 08:34:02;;;;;;;36.63;28.58;;;;;;;17.85;66.27;100530.69;5014169;28;20057;-58
2021/06/09 08:36:29;;;;;;;34.90;27.50;;;;;;;17.87;66.06;100531.56;5013252;28;20128;-58
2021/06/09 08:38:56;;;;;;;38.30;31.02;;;;;;;17.89;66.03;100535.91;5014283;28;20037;-58
2021/06/09 08:41:33;;;;;;;34.20;28.17;;;;;;;17.90;65.96;100526.31;4996343;28;20037;-58
2021/06/09 08:44:01;;;;;;;35.95;30.33;;;;;;;17.88;66.04;100526.28;5012788;28;20088;-58
2021/06/09 08:46:27;;;;;;;35.30;29.38;;;;;;;17.91;66.06;100531.53;5012792;28;20132;-58
2021/06/09 08:48:56;;;;;;;41.90;31.52;;;;;;;17.94;66.05;100528.00;5014294;28;20095;-58
2021/06/09 08:51:22;;;;;;;37.10;31.02;;;;;;;17.94;66.02;100536.75;4996550;28;20034;-58
2021/06/09 08:53:50;;;;;;;37.72;30.80;;;;;;;17.95;65.95;100533.25;5013046;28;20037;-58
2021/06/09 08:56:17;;;;;;;41.58;31.92;;;;;;;17.98;65.92;100526.28;5012705;28;20041;-58
2021/06/09 08:58:43;;;;;;;39.03;32.17;;;;;;;17.98;66.03;100534.16;5013125;28;20037;-57
2021/06/09 09:01:10;;;;;;;38.10;33.58;;;;;;;17.99;65.79;100538.50;5014181;28;20477;-58
2021/06/09 09:03:39;;;;;;;42.53;34.42;;;;;;;18.01;65.84;100537.63;5012427;28;20060;-58
2021/06/09 09:06:05;;;;;;;46.50;35.20;;;;;;;18.01;65.98;100532.38;4996268;28;20092;-57
2021/06/09 09:08:31;;;;;;;41.22;34.17;;;;;;;18.03;65.95;100530.63;5013785;28;20497;-58
2021/06/09 09:10:56;;;;;;;42.13;34.17;;;;;;;18.05;65.97;100536.72;5013670;28;20034;-58
2021/06/09 09:13:24;;;;;;;40.78;34.75;;;;;;;18.08;66.06;100534.06;5012673;28;20120;-58
2021/06/09 09:15:49;;;;;;;42.10;34.95;;;;;;;18.10;65.95;100537.53;4996063;28;20049;-59
2021/06/09 09:18:17;;;;;;;44.83;37.78;;;;;;;18.11;65.81;100536.66;5013865;28;20034;-59
2021/06/09 09:20:48;;;;;;;45.25;36.25;;;;;;;18.14;65.87;100545.38;4996005;28;20045;-59
2021/06/09 09:23:24;;;;;;;42.25;35.88;;;;;;;18.15;65.91;100541.88;5013776;28;20069;-59
2021/06/09 09:25:53;;;;;;;42.33;35.63;;;;;;;18.16;65.95;100543.63;4996472;28;20136;-59
2021/06/09 09:28:33;;;;;;;52.17;39.55;;;;;;;18.17;65.89;100542.75;5012382;28;20041;-58
2021/06/09 09:31:09;;;;;;;49.47;38.33;;;;;;;18.18;65.88;100558.47;5012485;28;20093;-59
2021/06/09 09:33:35;;;;;;;49.45;38.90;;;;;;;18.21;65.95;100550.56;4995956;28;20034;-59
2021/06/09 09:36:29;;;;;;;51.95;40.22;;;;;;;18.22;65.85;100554.94;5012447;28;20037;-59
2021/06/09 09:38:57;;;;;;;50.88;39.97;;;;;;;18.23;65.91;100548.81;5012647;28;20040;-58
2021/06/09 09:41:28;;;;;;;46.85;38.95;;;;;;;18.25;65.79;100562.81;4995657;28;20026;-58
2021/06/09 09:43:58;;;;;;;53.47;40.03;;;;;;;18.27;65.86;100562.78;5012385;28;20091;-58
2021/06/09 09:46:34;;;;;;;53.90;38.67;;;;;;;18.28;66.05;100556.66;5012454;28;20038;-58
2021/06/09 09:49:17;;;;;;;48.50;40.03;;;;;;;18.30;65.81;100559.25;5012111;28;20030;-59
2021/06/09 09:51:51;;;;;;;49.15;39.67;;;;;;;18.29;65.73;100553.16;5013424;28;20038;-57
2021/06/09 09:54:32;;;;;;;44.78;39.80;;;;;;;18.31;65.86;100554.00;5012133;28;20038;-57
2021/06/09 09:57:06;;;;;;;47.72;40.10;;;;;;;18.33;65.98;100553.97;4996336;28;20038;-58
2021/06/09 09:59:32;;;;;;;;;;;;;;;18.33;65.74;100553.97;5016725;28;20084;-58
2021/06/09 10:02:04;;;;;;;50.03;39.80;;;;;;;18.36;66.00;100559.22;4999299;28;19918;-58
2021/06/09 10:04:35;;;;;;;46.13;38.08;;;;;;;18.36;65.93;100554.84;5000091;28;20041;-58
2021/06/09 10:07:01;;;;;;;46.80;37.53;;;;;;;18.40;65.88;100563.56;5017044;28;20033;-58
2021/06/09 10:09:39;;;;;;;43.63;37.65;;;;;;;18.41;65.94;100562.69;4999511;28;20161;-58
2021/06/09 10:12:12;;;;;;;46.30;37.55;;;;;;;18.43;65.94;100558.28;4999505;28;20038;-58
2021/06/09 10:14:48;;;;;;;41.13;34.67;;;;;;;18.44;66.30;100562.66;5000020;28;20060;-58
2021/06/09 10:17:16;;;;;;;40.30;35.30;;;;;;;18.47;65.84;100559.13;5015481;28;20049;-58
2021/06/09 10:19:51;;;;;;;44.00;35.13;;;;;;;18.48;65.83;100564.34;4999256;28;20042;-58
2021/06/09 10:22:39;;;;;;;43.50;36.00;;;;;;;18.51;65.90;100568.72;4999127;28;20034;-58
2021/06/09 10:25:12;;;;;;;38.70;34.50;;;;;;;18.50;65.87;100562.59;5016208;28;20034;-58
2021/06/09 10:27:51;;;;;;;37.95;33.70;;;;;;;18.52;65.95;100554.72;4999389;28;20116;-58
2021/06/09 10:30:24;;;;;;;36.28;30.98;;;;;;;18.53;65.90;100553.84;5000097;28;20049;-57
2021/06/09 10:32:51;;;;;;;34.77;31.00;;;;;;;18.54;65.81;100559.06;5016569;28;20042;-57
2021/06/09 10:35:20;;;;;;;33.88;30.27;;;;;;;18.54;65.83;100556.44;5015219;28;20066;-57
2021/06/09 10:37:47;;;;;;;34.83;29.60;;;;;;;18.55;65.98;100552.94;5015327;28;20046;-57
2021/06/09 10:40:16;;;;;;;34.63;29.08;;;;;;;18.57;65.81;100555.53;4998918;28;20037;-58
2021/06/09 10:42:43;;;;;;;33.53;28.75;;;;;;;18.59;65.54;100555.53;5015894;28;20096;-58
2021/06/09 10:45:15;;;;;;;32.90;28.13;;;;;;;18.59;65.85;100548.53;4999239;28;20132;-58
2021/06/09 10:47:46;;;;;;;35.45;28.25;;;;;;;18.60;65.95;100554.66;5015464;28;20042;-58
2021/06/09 10:50:20;;;;;;;31.30;27.60;;;;;;;18.62;65.81;100547.59;5015158;28;20037;-57
2021/06/09 10:52:51;;;;;;;32.20;28.70;;;;;;;18.62;65.79;100551.13;4998549;28;20041;-57
2021/06/09 10:55:18;;;;;;;34.63;26.55;;;;;;;18.65;65.67;100560.72;5015391;28;20038;-58
2021/06/09 10:57:49;;;;;;;32.78;28.58;;;;;;;18.65;65.76;100558.09;4998565;28;20034;-58
2021/06/09 11:00:21;;;;;;;34.13;27.88;;;;;;;18.67;65.75;100553.69;4999059;28;20033;-58
2021/06/09 11:02:48;;;;;;;29.98;26.58;;;;;;;18.69;65.72;100557.19;5014516;28;20112;-58
2021/06/09 11:05:19;;;;;;;29.10;23.88;;;;;;;18.71;65.89;100555.41;4998585;28;20030;-58
2021/06/09 11:07:52;;;;;;;30.90;25.90;;;;;;;18.72;65.89;100562.41;4998354;28;20034;-57
2021/06/09 11:10:30;;;;;;;29.77;24.25;;;;;;;18.71;65.69;100550.16;4998764;28;20038;-58
2021/06/09 11:12:59;;;;;;;27.95;22.35;;;;;;;18.73;65.62;100553.66;5014857;28;20049;-58
2021/06/09 11:15:33;;;;;;;29.20;22.23;;;;;;;18.74;65.61;100550.16;5014493;28;20079;-59
2021/06/09 11:18:00;;;;;;;;;;;;;;;18.74;65.68;100550.16;5014658;28;20069;-59
2021/06/09 11:20:32;;;;;;;30.25;21.15;;;;;;;18.74;65.60;100544.88;4998434;28;20400;-59
2021/06/09 11:23:05;;;;;;;27.92;22.20;;;;;;;18.75;65.62;100545.75;4998211;28;20040;-59
2021/06/09 11:25:38;;;;;;;31.23;21.95;;;;;;;18.77;65.51;100549.22;4997985;28;20038;-58
2021/06/09 11:28:14;;;;;;;26.35;21.55;;;;;;;18.77;65.47;100543.97;4998131;28;20034;-57
2021/06/09 11:31:03;;;;;;;27.92;20.38;;;;;;;18.79;65.56;100547.47;5014038;28;20043;-58